sensor_id;sensor_type;location;lat;lon;timestamp;P1;durP1;ratioP1;P2;durP2;ratioP2
61322;SDS011;47203;48.428;11.974;2023-04-03T00:01:15;3.63;;;2.47;;
61322;SDS011;47203;48.428;11.974;2023-04-03T00:03:20;3.92;;;2.30;;
61322;SDS011;47203;48.428;11.974;2023-04-03T00:05:25;4.80;;;2.70;;
61322;SDS011;47203;48.428;11.974;2023-04-03T00:07:30;5.07;;;2.80;;
61322;SDS011;47203;48.428;11.974;2023-04-03T00:09:36;4.18;;;2.83;;
61322;SDS011;47203;48.428;11.974;2023-04-03T00:11:40;3.53;;;2.45;;
61322;SDS011;47203;48.428;11.974;2023-04-03T00:13:48;4.07;;;2.40;;
61322;SDS011;47203;48.428;11.974;2023-04-03T00:15:53;3.15;;;2.40;;
61322;SDS011;47203;48.428;11.974;2023-04-03T00:17:58;3.63;;;2.15;;
61322;SDS011;47203;48.428;11.974;2023-04-03T00:20:04;4.43;;;2.38;;
61322;SDS011;47203;48.428;11.974;2023-04-03T00:22:10;2.78;;;2.17;;
61322;SDS011;47203;48.428;11.974;2023-04-03T00:24:14;3.50;;;2.20;;
61322;SDS011;47203;48.428;11.974;2023-04-03T00:26:20;3.58;;;2.65;;
61322;SDS011;47203;48.428;11.974;2023-04-03T00:28:25;2.80;;;2.17;;
61322;SDS011;47203;48.428;11.974;2023-04-03T00:30:32;3.72;;;2.67;;
61322;SDS011;47203;48.428;11.974;2023-04-03T00:32:37;4.00;;;2.65;;
61322;SDS011;47203;48.428;11.974;2023-04-03T00:34:42;5.60;;;2.67;;
61322;SDS011;47203;48.428;11.974;2023-04-03T00:36:47;3.88;;;2.30;;
61322;SDS011;47203;48.428;11.974;2023-04-03T00:38:53;3.60;;;2.35;;
61322;SDS011;47203;48.428;11.974;2023-04-03T00:40:58;5.88;;;2.88;;
61322;SDS011;47203;48.428;11.974;2023-04-03T00:43:05;4.10;;;2.30;;
61322;SDS011;47203;48.428;11.974;2023-04-03T00:45:33;2.88;;;2.13;;
61322;SDS011;47203;48.428;11.974;2023-04-03T00:47:39;5.93;;;2.67;;
61322;SDS011;47203;48.428;11.974;2023-04-03T00:49:46;3.67;;;2.25;;
61322;SDS011;47203;48.428;11.974;2023-04-03T00:51:51;3.05;;;2.30;;
61322;SDS011;47203;48.428;11.974;2023-04-03T00:53:58;3.53;;;2.03;;
61322;SDS011;47203;48.428;11.974;2023-04-03T00:56:05;3.63;;;2.10;;
61322;SDS011;47203;48.428;11.974;2023-04-03T00:58:13;4.50;;;2.88;;
61322;SDS011;47203;48.428;11.974;2023-04-03T01:00:21;2.92;;;2.30;;
61322;SDS011;47203;48.428;11.974;2023-04-03T01:02:30;3.58;;;2.55;;
61322;SDS011;47203;48.428;11.974;2023-04-03T01:04:36;3.67;;;2.85;;
61322;SDS011;47203;48.428;11.974;2023-04-03T01:06:43;4.28;;;2.50;;
61322;SDS011;47203;48.428;11.974;2023-04-03T01:08:47;3.60;;;2.55;;
61322;SDS011;47203;48.428;11.974;2023-04-03T01:10:54;4.28;;;2.53;;
61322;SDS011;47203;48.428;11.974;2023-04-03T01:13:00;3.20;;;2.33;;
61322;SDS011;47203;48.428;11.974;2023-04-03T01:15:08;3.05;;;2.22;;
61322;SDS011;47203;48.428;11.974;2023-04-03T01:17:26;2.78;;;2.10;;
61322;SDS011;47203;48.428;11.974;2023-04-03T01:19:36;3.42;;;2.25;;
61322;SDS011;47203;48.428;11.974;2023-04-03T01:21:59;3.83;;;2.50;;
61322;SDS011;47203;48.428;11.974;2023-04-03T01:26:44;2.78;;;1.98;;
61322;SDS011;47203;48.428;11.974;2023-04-03T01:28:50;2.80;;;1.90;;
61322;SDS011;47203;48.428;11.974;2023-04-03T01:30:59;3.75;;;2.10;;
61322;SDS011;47203;48.428;11.974;2023-04-03T01:33:12;3.20;;;2.25;;
61322;SDS011;47203;48.428;11.974;2023-04-03T01:35:19;3.80;;;2.55;;
61322;SDS011;47203;48.428;11.974;2023-04-03T01:37:26;3.28;;;2.28;;
61322;SDS011;47203;48.428;11.974;2023-04-03T01:39:31;3.95;;;2.35;;
61322;SDS011;47203;48.428;11.974;2023-04-03T01:41:36;3.35;;;2.00;;
61322;SDS011;47203;48.428;11.974;2023-04-03T01:43:50;3.33;;;2.08;;
61322;SDS011;47203;48.428;11.974;2023-04-03T01:45:55;3.88;;;2.33;;
61322;SDS011;47203;48.428;11.974;2023-04-03T01:47:59;3.80;;;2.40;;
61322;SDS011;47203;48.428;11.974;2023-04-03T01:50:07;5.35;;;2.15;;
61322;SDS011;47203;48.428;11.974;2023-04-03T01:52:13;3.50;;;2.25;;
61322;SDS011;47203;48.428;11.974;2023-04-03T01:54:18;3.70;;;2.20;;
61322;SDS011;47203;48.428;11.974;2023-04-03T01:56:23;3.65;;;2.03;;
61322;SDS011;47203;48.428;11.974;2023-04-03T01:58:30;5.38;;;2.35;;
61322;SDS011;47203;48.428;11.974;2023-04-03T02:00:35;2.95;;;2.22;;
61322;SDS011;47203;48.428;11.974;2023-04-03T02:02:40;3.30;;;2.00;;
61322;SDS011;47203;48.428;11.974;2023-04-03T02:04:45;3.40;;;2.05;;
61322;SDS011;47203;48.428;11.974;2023-04-03T02:06:53;2.83;;;2.28;;
61322;SDS011;47203;48.428;11.974;2023-04-03T02:08:58;3.35;;;1.95;;
61322;SDS011;47203;48.428;11.974;2023-04-03T02:11:04;3.30;;;2.10;;
61322;SDS011;47203;48.428;11.974;2023-04-03T02:13:09;2.78;;;2.10;;
61322;SDS011;47203;48.428;11.974;2023-04-03T02:15:14;3.42;;;2.28;;
61322;SDS011;47203;48.428;11.974;2023-04-03T02:17:19;3.55;;;2.40;;
61322;SDS011;47203;48.428;11.974;2023-04-03T02:19:24;4.18;;;2.20;;
61322;SDS011;47203;48.428;11.974;2023-04-03T02:21:29;2.90;;;2.10;;
61322;SDS011;47203;48.428;11.974;2023-04-03T02:23:36;2.58;;;1.98;;
61322;SDS011;47203;48.428;11.974;2023-04-03T02:25:41;3.92;;;2.15;;
61322;SDS011;47203;48.428;11.974;2023-04-03T02:27:46;4.47;;;2.10;;
61322;SDS011;47203;48.428;11.974;2023-04-03T02:29:51;3.50;;;2.30;;
61322;SDS011;47203;48.428;11.974;2023-04-03T02:31:57;3.72;;;2.30;;
61322;SDS011;47203;48.428;11.974;2023-04-03T02:34:02;2.60;;;1.70;;
61322;SDS011;47203;48.428;11.974;2023-04-03T02:36:09;3.58;;;2.30;;
61322;SDS011;47203;48.428;11.974;2023-04-03T02:38:17;2.85;;;2.00;;
61322;SDS011;47203;48.428;11.974;2023-04-03T02:40:25;5.28;;;2.38;;
61322;SDS011;47203;48.428;11.974;2023-04-03T02:42:30;3.20;;;2.28;;
61322;SDS011;47203;48.428;11.974;2023-04-03T02:44:37;3.05;;;1.90;;
61322;SDS011;47203;48.428;11.974;2023-04-03T02:46:43;3.30;;;2.20;;
61322;SDS011;47203;48.428;11.974;2023-04-03T02:48:48;2.45;;;1.70;;
61322;SDS011;47203;48.428;11.974;2023-04-03T02:50:53;2.90;;;2.03;;
61322;SDS011;47203;48.428;11.974;2023-04-03T02:52:59;3.13;;;2.10;;
61322;SDS011;47203;48.428;11.974;2023-04-03T02:55:04;3.88;;;2.30;;
61322;SDS011;47203;48.428;11.974;2023-04-03T02:57:12;5.03;;;2.30;;
61322;SDS011;47203;48.428;11.974;2023-04-03T02:59:18;2.85;;;1.90;;
61322;SDS011;47203;48.428;11.974;2023-04-03T03:01:23;2.83;;;1.88;;
61322;SDS011;47203;48.428;11.974;2023-04-03T03:03:30;3.70;;;2.00;;
61322;SDS011;47203;48.428;11.974;2023-04-03T03:05:34;3.40;;;2.45;;
61322;SDS011;47203;48.428;11.974;2023-04-03T03:07:40;4.05;;;2.40;;
61322;SDS011;47203;48.428;11.974;2023-04-03T03:09:44;3.38;;;1.83;;
61322;SDS011;47203;48.428;11.974;2023-04-03T03:11:49;2.90;;;2.25;;
61322;SDS011;47203;48.428;11.974;2023-04-03T03:13:57;2.38;;;1.98;;
61322;SDS011;47203;48.428;11.974;2023-04-03T03:16:02;3.55;;;2.70;;
61322;SDS011;47203;48.428;11.974;2023-04-03T03:18:08;3.72;;;2.15;;
61322;SDS011;47203;48.428;11.974;2023-04-03T03:20:13;3.20;;;2.13;;
61322;SDS011;47203;48.428;11.974;2023-04-03T03:22:19;2.88;;;1.95;;
61322;SDS011;47203;48.428;11.974;2023-04-03T03:24:24;4.78;;;2.90;;
61322;SDS011;47203;48.428;11.974;2023-04-03T03:26:29;4.47;;;2.50;;
61322;SDS011;47203;48.428;11.974;2023-04-03T03:28:36;4.07;;;2.38;;
61322;SDS011;47203;48.428;11.974;2023-04-03T03:30:45;3.13;;;2.33;;
61322;SDS011;47203;48.428;11.974;2023-04-03T03:32:51;3.80;;;2.30;;
61322;SDS011;47203;48.428;11.974;2023-04-03T03:34:56;3.10;;;2.35;;
61322;SDS011;47203;48.428;11.974;2023-04-03T03:37:01;3.67;;;2.58;;
61322;SDS011;47203;48.428;11.974;2023-04-03T03:39:06;3.08;;;1.95;;
61322;SDS011;47203;48.428;11.974;2023-04-03T03:41:11;2.92;;;2.17;;
61322;SDS011;47203;48.428;11.974;2023-04-03T03:43:18;4.18;;;2.35;;
61322;SDS011;47203;48.428;11.974;2023-04-03T03:45:26;3.80;;;2.03;;
61322;SDS011;47203;48.428;11.974;2023-04-03T03:47:34;5.38;;;2.58;;
61322;SDS011;47203;48.428;11.974;2023-04-03T03:49:39;5.45;;;2.83;;
61322;SDS011;47203;48.428;11.974;2023-04-03T03:51:45;3.88;;;2.42;;
61322;SDS011;47203;48.428;11.974;2023-04-03T03:53:49;3.90;;;2.20;;
61322;SDS011;47203;48.428;11.974;2023-04-03T03:55:55;3.53;;;2.50;;
61322;SDS011;47203;48.428;11.974;2023-04-03T03:58:02;4.13;;;2.17;;
61322;SDS011;47203;48.428;11.974;2023-04-03T04:00:09;3.25;;;2.20;;
61322;SDS011;47203;48.428;11.974;2023-04-03T04:02:23;4.18;;;2.35;;
61322;SDS011;47203;48.428;11.974;2023-04-03T04:04:31;4.18;;;2.45;;
61322;SDS011;47203;48.428;11.974;2023-04-03T04:06:36;3.83;;;2.78;;
61322;SDS011;47203;48.428;11.974;2023-04-03T04:08:43;4.15;;;2.70;;
61322;SDS011;47203;48.428;11.974;2023-04-03T04:10:49;4.88;;;2.90;;
61322;SDS011;47203;48.428;11.974;2023-04-03T04:12:54;5.28;;;3.10;;
61322;SDS011;47203;48.428;11.974;2023-04-03T04:15:01;6.05;;;3.17;;
61322;SDS011;47203;48.428;11.974;2023-04-03T04:17:07;4.32;;;2.95;;
61322;SDS011;47203;48.428;11.974;2023-04-03T04:19:12;3.85;;;2.60;;
61322;SDS011;47203;48.428;11.974;2023-04-03T04:21:21;4.45;;;2.88;;
61322;SDS011;47203;48.428;11.974;2023-04-03T04:23:27;4.90;;;2.55;;
61322;SDS011;47203;48.428;11.974;2023-04-03T04:25:34;4.20;;;2.65;;
61322;SDS011;47203;48.428;11.974;2023-04-03T04:27:40;4.47;;;3.08;;
61322;SDS011;47203;48.428;11.974;2023-04-03T04:29:48;4.13;;;3.20;;
61322;SDS011;47203;48.428;11.974;2023-04-03T04:31:55;4.18;;;2.88;;
61322;SDS011;47203;48.428;11.974;2023-04-03T04:34:00;4.28;;;2.83;;
61322;SDS011;47203;48.428;11.974;2023-04-03T04:36:06;3.88;;;2.58;;
61322;SDS011;47203;48.428;11.974;2023-04-03T04:38:14;5.38;;;3.25;;
61322;SDS011;47203;48.428;11.974;2023-04-03T04:40:20;4.22;;;2.78;;
61322;SDS011;47203;48.428;11.974;2023-04-03T04:42:25;4.68;;;2.90;;
61322;SDS011;47203;48.428;11.974;2023-04-03T04:44:30;3.70;;;2.97;;
61322;SDS011;47203;48.428;11.974;2023-04-03T04:46:35;5.82;;;2.60;;
61322;SDS011;47203;48.428;11.974;2023-04-03T04:48:41;4.78;;;2.88;;
61322;SDS011;47203;48.428;11.974;2023-04-03T04:50:47;4.03;;;3.00;;
61322;SDS011;47203;48.428;11.974;2023-04-03T04:52:52;3.70;;;2.67;;
61322;SDS011;47203;48.428;11.974;2023-04-03T04:54:59;5.43;;;2.80;;
61322;SDS011;47203;48.428;11.974;2023-04-03T04:57:04;4.97;;;2.60;;
61322;SDS011;47203;48.428;11.974;2023-04-03T04:59:09;3.42;;;2.53;;
61322;SDS011;47203;48.428;11.974;2023-04-03T05:01:14;4.28;;;2.90;;
61322;SDS011;47203;48.428;11.974;2023-04-03T05:03:30;3.45;;;2.50;;
61322;SDS011;47203;48.428;11.974;2023-04-03T05:05:35;4.03;;;2.80;;
61322;SDS011;47203;48.428;11.974;2023-04-03T05:07:41;5.50;;;2.85;;
61322;SDS011;47203;48.428;11.974;2023-04-03T05:09:46;4.95;;;3.00;;
61322;SDS011;47203;48.428;11.974;2023-04-03T05:11:54;4.25;;;2.92;;
61322;SDS011;47203;48.428;11.974;2023-04-03T05:14:03;3.72;;;2.92;;
61322;SDS011;47203;48.428;11.974;2023-04-03T05:16:10;4.30;;;3.08;;
61322;SDS011;47203;48.428;11.974;2023-04-03T05:18:15;4.05;;;2.90;;
61322;SDS011;47203;48.428;11.974;2023-04-03T05:20:20;3.90;;;3.10;;
61322;SDS011;47203;48.428;11.974;2023-04-03T05:22:26;4.38;;;3.13;;
61322;SDS011;47203;48.428;11.974;2023-04-03T05:24:37;4.93;;;3.20;;
61322;SDS011;47203;48.428;11.974;2023-04-03T05:26:43;4.45;;;3.00;;
61322;SDS011;47203;48.428;11.974;2023-04-03T05:28:52;4.95;;;3.17;;
61322;SDS011;47203;48.428;11.974;2023-04-03T05:30:57;4.20;;;3.13;;
61322;SDS011;47203;48.428;11.974;2023-04-03T05:33:08;3.95;;;3.20;;
61322;SDS011;47203;48.428;11.974;2023-04-03T05:35:19;4.05;;;3.15;;
61322;SDS011;47203;48.428;11.974;2023-04-03T05:37:28;5.32;;;3.65;;
61322;SDS011;47203;48.428;11.974;2023-04-03T05:39:33;5.63;;;3.40;;
61322;SDS011;47203;48.428;11.974;2023-04-03T05:41:40;5.95;;;3.70;;
61322;SDS011;47203;48.428;11.974;2023-04-03T05:43:46;6.10;;;3.38;;
61322;SDS011;47203;48.428;11.974;2023-04-03T05:45:55;4.88;;;3.55;;
61322;SDS011;47203;48.428;11.974;2023-04-03T05:48:02;3.95;;;3.05;;
61322;SDS011;47203;48.428;11.974;2023-04-03T05:50:08;7.45;;;3.58;;
61322;SDS011;47203;48.428;11.974;2023-04-03T05:52:17;5.60;;;3.88;;
61322;SDS011;47203;48.428;11.974;2023-04-03T05:54:26;5.07;;;3.53;;
61322;SDS011;47203;48.428;11.974;2023-04-03T05:56:40;7.20;;;4.53;;
61322;SDS011;47203;48.428;11.974;2023-04-03T05:58:45;5.97;;;4.30;;
61322;SDS011;47203;48.428;11.974;2023-04-03T06:00:50;5.60;;;3.67;;
61322;SDS011;47203;48.428;11.974;2023-04-03T06:02:58;6.68;;;3.80;;
61322;SDS011;47203;48.428;11.974;2023-04-03T06:05:03;4.18;;;3.67;;
61322;SDS011;47203;48.428;11.974;2023-04-03T06:07:10;5.82;;;3.53;;
61322;SDS011;47203;48.428;11.974;2023-04-03T06:09:18;4.95;;;3.97;;
61322;SDS011;47203;48.428;11.974;2023-04-03T06:11:24;5.57;;;4.13;;
61322;SDS011;47203;48.428;11.974;2023-04-03T06:13:29;4.78;;;3.75;;
61322;SDS011;47203;48.428;11.974;2023-04-03T06:15:35;5.72;;;3.63;;
61322;SDS011;47203;48.428;11.974;2023-04-03T06:17:43;5.70;;;3.85;;
61322;SDS011;47203;48.428;11.974;2023-04-03T06:19:50;7.07;;;4.40;;
61322;SDS011;47203;48.428;11.974;2023-04-03T06:21:55;5.57;;;3.92;;
61322;SDS011;47203;48.428;11.974;2023-04-03T06:24:00;6.15;;;3.83;;
61322;SDS011;47203;48.428;11.974;2023-04-03T06:26:06;6.43;;;4.30;;
61322;SDS011;47203;48.428;11.974;2023-04-03T06:28:12;5.57;;;4.03;;
61322;SDS011;47203;48.428;11.974;2023-04-03T06:30:17;7.22;;;4.45;;
61322;SDS011;47203;48.428;11.974;2023-04-03T06:32:22;7.78;;;4.28;;
61322;SDS011;47203;48.428;11.974;2023-04-03T06:34:28;7.07;;;4.20;;
61322;SDS011;47203;48.428;11.974;2023-04-03T06:36:35;5.47;;;3.67;;
61322;SDS011;47203;48.428;11.974;2023-04-03T06:38:40;9.07;;;4.22;;
61322;SDS011;47203;48.428;11.974;2023-04-03T06:40:45;5.93;;;3.72;;
61322;SDS011;47203;48.428;11.974;2023-04-03T06:42:50;4.93;;;3.88;;
61322;SDS011;47203;48.428;11.974;2023-04-03T06:44:56;6.70;;;3.88;;
61322;SDS011;47203;48.428;11.974;2023-04-03T06:47:02;6.70;;;4.05;;
61322;SDS011;47203;48.428;11.974;2023-04-03T06:49:07;5.88;;;4.25;;
61322;SDS011;47203;48.428;11.974;2023-04-03T06:51:17;5.97;;;3.95;;
61322;SDS011;47203;48.428;11.974;2023-04-03T06:53:26;6.30;;;3.80;;
61322;SDS011;47203;48.428;11.974;2023-04-03T06:55:32;5.70;;;3.90;;
61322;SDS011;47203;48.428;11.974;2023-04-03T06:57:38;6.50;;;3.78;;
61322;SDS011;47203;48.428;11.974;2023-04-03T06:59:43;4.80;;;3.40;;
61322;SDS011;47203;48.428;11.974;2023-04-03T07:01:49;7.63;;;3.42;;
61322;SDS011;47203;48.428;11.974;2023-04-03T07:03:54;5.88;;;3.72;;
61322;SDS011;47203;48.428;11.974;2023-04-03T07:06:00;5.03;;;3.50;;
61322;SDS011;47203;48.428;11.974;2023-04-03T07:08:05;4.68;;;3.33;;
61322;SDS011;47203;48.428;11.974;2023-04-03T07:10:13;6.75;;;3.70;;
61322;SDS011;47203;48.428;11.974;2023-04-03T07:12:18;7.72;;;4.38;;
61322;SDS011;47203;48.428;11.974;2023-04-03T07:14:22;5.43;;;3.38;;
61322;SDS011;47203;48.428;11.974;2023-04-03T07:16:27;5.32;;;3.65;;
61322;SDS011;47203;48.428;11.974;2023-04-03T07:18:33;7.57;;;4.38;;
61322;SDS011;47203;48.428;11.974;2023-04-03T07:20:38;6.47;;;3.78;;
61322;SDS011;47203;48.428;11.974;2023-04-03T07:22:43;5.85;;;3.80;;
61322;SDS011;47203;48.428;11.974;2023-04-03T07:24:47;8.27;;;3.63;;
61322;SDS011;47203;48.428;11.974;2023-04-03T07:26:55;6.07;;;3.67;;
61322;SDS011;47203;48.428;11.974;2023-04-03T07:29:00;5.15;;;3.50;;
61322;SDS011;47203;48.428;11.974;2023-04-03T07:31:06;8.98;;;4.20;;
61322;SDS011;47203;48.428;11.974;2023-04-03T07:33:15;9.77;;;3.88;;
61322;SDS011;47203;48.428;11.974;2023-04-03T07:35:21;6.22;;;3.00;;
61322;SDS011;47203;48.428;11.974;2023-04-03T07:37:26;5.38;;;3.13;;
61322;SDS011;47203;48.428;11.974;2023-04-03T07:39:31;5.45;;;3.67;;
61322;SDS011;47203;48.428;11.974;2023-04-03T07:41:36;5.18;;;3.17;;
61322;SDS011;47203;48.428;11.974;2023-04-03T07:43:44;6.25;;;3.42;;
61322;SDS011;47203;48.428;11.974;2023-04-03T07:45:51;4.95;;;3.45;;
61322;SDS011;47203;48.428;11.974;2023-04-03T07:47:56;6.78;;;3.88;;
61322;SDS011;47203;48.428;11.974;2023-04-03T07:50:01;4.82;;;3.28;;
61322;SDS011;47203;48.428;11.974;2023-04-03T07:52:07;7.35;;;3.40;;
61322;SDS011;47203;48.428;11.974;2023-04-03T07:54:12;4.55;;;3.35;;
61322;SDS011;47203;48.428;11.974;2023-04-03T07:56:17;5.18;;;3.83;;
61322;SDS011;47203;48.428;11.974;2023-04-03T07:58:22;5.38;;;3.80;;
61322;SDS011;47203;48.428;11.974;2023-04-03T08:00:29;6.45;;;3.35;;
61322;SDS011;47203;48.428;11.974;2023-04-03T08:02:34;6.55;;;3.28;;
61322;SDS011;47203;48.428;11.974;2023-04-03T08:04:39;6.43;;;3.58;;
61322;SDS011;47203;48.428;11.974;2023-04-03T08:06:45;3.50;;;2.70;;
61322;SDS011;47203;48.428;11.974;2023-04-03T08:08:49;5.78;;;3.42;;
61322;SDS011;47203;48.428;11.974;2023-04-03T08:10:54;5.63;;;3.35;;
61322;SDS011;47203;48.428;11.974;2023-04-03T08:13:04;5.68;;;3.58;;
61322;SDS011;47203;48.428;11.974;2023-04-03T08:15:09;5.80;;;3.60;;
61322;SDS011;47203;48.428;11.974;2023-04-03T08:17:17;5.13;;;3.10;;
61322;SDS011;47203;48.428;11.974;2023-04-03T08:19:22;8.23;;;3.20;;
61322;SDS011;47203;48.428;11.974;2023-04-03T08:21:27;4.40;;;3.00;;
61322;SDS011;47203;48.428;11.974;2023-04-03T08:23:32;4.78;;;3.33;;
61322;SDS011;47203;48.428;11.974;2023-04-03T08:25:37;4.97;;;3.35;;
61322;SDS011;47203;48.428;11.974;2023-04-03T08:27:43;5.30;;;3.00;;
61322;SDS011;47203;48.428;11.974;2023-04-03T08:29:48;4.93;;;3.38;;
61322;SDS011;47203;48.428;11.974;2023-04-03T08:31:53;5.65;;;3.30;;
61322;SDS011;47203;48.428;11.974;2023-04-03T08:34:01;4.03;;;3.28;;
61322;SDS011;47203;48.428;11.974;2023-04-03T08:36:08;3.55;;;2.80;;
61322;SDS011;47203;48.428;11.974;2023-04-03T08:38:23;5.30;;;3.08;;
61322;SDS011;47203;48.428;11.974;2023-04-03T08:40:28;5.25;;;2.97;;
61322;SDS011;47203;48.428;11.974;2023-04-03T08:42:36;7.35;;;3.53;;
61322;SDS011;47203;48.428;11.974;2023-04-03T08:44:52;4.03;;;2.50;;
61322;SDS011;47203;48.428;11.974;2023-04-03T08:47:09;5.30;;;2.80;;
61322;SDS011;47203;48.428;11.974;2023-04-03T08:49:26;4.25;;;2.70;;
61322;SDS011;47203;48.428;11.974;2023-04-03T08:51:34;5.35;;;2.83;;
61322;SDS011;47203;48.428;11.974;2023-04-03T08:53:53;7.13;;;3.33;;
61322;SDS011;47203;48.428;11.974;2023-04-03T08:56:05;5.10;;;2.88;;
61322;SDS011;47203;48.428;11.974;2023-04-03T08:58:15;6.05;;;2.90;;
61322;SDS011;47203;48.428;11.974;2023-04-03T09:00:23;4.47;;;2.63;;
61322;SDS011;47203;48.428;11.974;2023-04-03T09:02:31;4.90;;;2.25;;
61322;SDS011;47203;48.428;11.974;2023-04-03T09:04:42;3.65;;;2.20;;
61322;SDS011;47203;48.428;11.974;2023-04-03T09:06:49;3.65;;;2.30;;
61322;SDS011;47203;48.428;11.974;2023-04-03T09:09:02;4.75;;;2.63;;
61322;SDS011;47203;48.428;11.974;2023-04-03T09:11:16;3.38;;;2.15;;
61322;SDS011;47203;48.428;11.974;2023-04-03T09:13:27;4.88;;;2.35;;
61322;SDS011;47203;48.428;11.974;2023-04-03T09:15:40;3.30;;;1.90;;
61322;SDS011;47203;48.428;11.974;2023-04-03T09:17:51;4.45;;;2.30;;
61322;SDS011;47203;48.428;11.974;2023-04-03T09:20:09;3.50;;;1.95;;
61322;SDS011;47203;48.428;11.974;2023-04-03T09:22:22;4.55;;;2.00;;
61322;SDS011;47203;48.428;11.974;2023-04-03T09:24:30;3.53;;;1.92;;
61322;SDS011;47203;48.428;11.974;2023-04-03T09:26:39;4.25;;;2.03;;
61322;SDS011;47203;48.428;11.974;2023-04-03T09:28:47;3.45;;;1.75;;
61322;SDS011;47203;48.428;11.974;2023-04-03T09:30:53;4.30;;;2.13;;
61322;SDS011;47203;48.428;11.974;2023-04-03T09:32:58;3.78;;;2.05;;
61322;SDS011;47203;48.428;11.974;2023-04-03T09:35:04;3.08;;;2.00;;
61322;SDS011;47203;48.428;11.974;2023-04-03T09:37:34;2.83;;;1.88;;
61322;SDS011;47203;48.428;11.974;2023-04-03T09:39:49;5.60;;;2.10;;
61322;SDS011;47203;48.428;11.974;2023-04-03T09:41:58;2.92;;;1.70;;
61322;SDS011;47203;48.428;11.974;2023-04-03T09:44:17;3.95;;;1.90;;
61322;SDS011;47203;48.428;11.974;2023-04-03T09:46:31;3.10;;;1.80;;
61322;SDS011;47203;48.428;11.974;2023-04-03T09:48:39;2.88;;;1.58;;
61322;SDS011;47203;48.428;11.974;2023-04-03T09:51:13;2.50;;;1.50;;
61322;SDS011;47203;48.428;11.974;2023-04-03T09:53:25;3.67;;;1.77;;
61322;SDS011;47203;48.428;11.974;2023-04-03T09:55:32;4.22;;;1.85;;
61322;SDS011;47203;48.428;11.974;2023-04-03T09:57:45;4.03;;;1.73;;
61322;SDS011;47203;48.428;11.974;2023-04-03T09:59:56;2.92;;;2.05;;
61322;SDS011;47203;48.428;11.974;2023-04-03T10:02:17;4.93;;;1.83;;
61322;SDS011;47203;48.428;11.974;2023-04-03T10:04:39;2.95;;;1.83;;
61322;SDS011;47203;48.428;11.974;2023-04-03T10:06:52;4.35;;;1.60;;
61322;SDS011;47203;48.428;11.974;2023-04-03T10:08:59;2.42;;;1.30;;
61322;SDS011;47203;48.428;11.974;2023-04-03T10:11:07;2.17;;;1.60;;
61322;SDS011;47203;48.428;11.974;2023-04-03T10:13:15;2.25;;;1.60;;
61322;SDS011;47203;48.428;11.974;2023-04-03T10:15:23;3.83;;;1.88;;
61322;SDS011;47203;48.428;11.974;2023-04-03T10:17:36;2.55;;;1.73;;
61322;SDS011;47203;48.428;11.974;2023-04-03T10:19:51;2.45;;;1.40;;
61322;SDS011;47203;48.428;11.974;2023-04-03T10:22:04;2.22;;;1.40;;
61322;SDS011;47203;48.428;11.974;2023-04-03T10:24:21;2.28;;;1.77;;
61322;SDS011;47203;48.428;11.974;2023-04-03T10:26:35;4.35;;;1.45;;
61322;SDS011;47203;48.428;11.974;2023-04-03T10:28:48;3.90;;;2.17;;
61322;SDS011;47203;48.428;11.974;2023-04-03T10:31:03;4.65;;;2.90;;
61322;SDS011;47203;48.428;11.974;2023-04-03T10:33:20;3.92;;;1.52;;
61322;SDS011;47203;48.428;11.974;2023-04-03T10:35:44;3.58;;;1.50;;
61322;SDS011;47203;48.428;11.974;2023-04-03T10:37:59;5.35;;;1.70;;
61322;SDS011;47203;48.428;11.974;2023-04-03T10:44:27;2.97;;;1.08;;
61322;SDS011;47203;48.428;11.974;2023-04-03T11:53:45;2.45;;;1.48;;
61322;SDS011;47203;48.428;11.974;2023-04-03T11:55:54;3.33;;;1.42;;
61322;SDS011;47203;48.428;11.974;2023-04-03T11:58:10;3.22;;;1.45;;
61322;SDS011;47203;48.428;11.974;2023-04-03T12:03:00;2.40;;;1.20;;
61322;SDS011;47203;48.428;11.974;2023-04-03T12:07:38;2.33;;;1.35;;
61322;SDS011;47203;48.428;11.974;2023-04-03T12:12:37;2.70;;;1.40;;
61322;SDS011;47203;48.428;11.974;2023-04-03T12:14:43;2.25;;;1.27;;
61322;SDS011;47203;48.428;11.974;2023-04-03T12:16:48;2.80;;;1.48;;
61322;SDS011;47203;48.428;11.974;2023-04-03T12:18:55;2.92;;;1.73;;
61322;SDS011;47203;48.428;11.974;2023-04-03T12:21:01;3.30;;;1.70;;
61322;SDS011;47203;48.428;11.974;2023-04-03T12:23:07;3.70;;;1.63;;
61322;SDS011;47203;48.428;11.974;2023-04-03T12:25:46;3.88;;;1.50;;
61322;SDS011;47203;48.428;11.974;2023-04-03T12:27:53;3.13;;;1.70;;
61322;SDS011;47203;48.428;11.974;2023-04-03T12:30:04;3.17;;;1.30;;
61322;SDS011;47203;48.428;11.974;2023-04-03T12:32:19;2.03;;;1.35;;
61322;SDS011;47203;48.428;11.974;2023-04-03T12:34:41;2.25;;;1.27;;
61322;SDS011;47203;48.428;11.974;2023-04-03T12:36:58;2.55;;;1.52;;
61322;SDS011;47203;48.428;11.974;2023-04-03T12:39:13;3.03;;;1.70;;
61322;SDS011;47203;48.428;11.974;2023-04-03T12:43:43;2.38;;;1.33;;
61322;SDS011;47203;48.428;11.974;2023-04-03T12:46:01;1.77;;;1.00;;
61322;SDS011;47203;48.428;11.974;2023-04-03T12:48:11;2.28;;;1.30;;
61322;SDS011;47203;48.428;11.974;2023-04-03T12:50:21;3.03;;;1.48;;
61322;SDS011;47203;48.428;11.974;2023-04-03T12:52:35;2.35;;;1.20;;
61322;SDS011;47203;48.428;11.974;2023-04-03T12:54:44;3.22;;;1.52;;
61322;SDS011;47203;48.428;11.974;2023-04-03T12:56:53;3.25;;;1.50;;
61322;SDS011;47203;48.428;11.974;2023-04-03T12:59:14;3.03;;;1.42;;
61322;SDS011;47203;48.428;11.974;2023-04-03T13:01:22;2.72;;;1.23;;
61322;SDS011;47203;48.428;11.974;2023-04-03T13:03:29;2.28;;;1.50;;
61322;SDS011;47203;48.428;11.974;2023-04-03T13:05:35;3.72;;;1.92;;
61322;SDS011;47203;48.428;11.974;2023-04-03T13:07:40;2.28;;;1.17;;
61322;SDS011;47203;48.428;11.974;2023-04-03T13:09:47;3.15;;;1.40;;
61322;SDS011;47203;48.428;11.974;2023-04-03T13:12:09;3.60;;;1.45;;
61322;SDS011;47203;48.428;11.974;2023-04-03T13:14:17;4.22;;;1.13;;
61322;SDS011;47203;48.428;11.974;2023-04-03T13:16:23;2.47;;;1.35;;
61322;SDS011;47203;48.428;11.974;2023-04-03T13:18:29;1.80;;;1.17;;
61322;SDS011;47203;48.428;11.974;2023-04-03T13:20:35;2.47;;;1.00;;
61322;SDS011;47203;48.428;11.974;2023-04-03T13:22:44;3.08;;;1.08;;
61322;SDS011;47203;48.428;11.974;2023-04-03T13:24:54;1.80;;;1.00;;
61322;SDS011;47203;48.428;11.974;2023-04-03T13:27:07;2.22;;;1.20;;
61322;SDS011;47203;48.428;11.974;2023-04-03T13:29:19;1.95;;;0.90;;
61322;SDS011;47203;48.428;11.974;2023-04-03T13:31:32;2.15;;;1.20;;
61322;SDS011;47203;48.428;11.974;2023-04-03T13:33:39;2.70;;;1.60;;
61322;SDS011;47203;48.428;11.974;2023-04-03T13:35:57;2.22;;;1.27;;
61322;SDS011;47203;48.428;11.974;2023-04-03T13:38:07;2.03;;;1.33;;
61322;SDS011;47203;48.428;11.974;2023-04-03T13:40:26;2.33;;;1.25;;
61322;SDS011;47203;48.428;11.974;2023-04-03T13:42:57;2.33;;;1.17;;
61322;SDS011;47203;48.428;11.974;2023-04-03T13:47:37;1.77;;;1.30;;
61322;SDS011;47203;48.428;11.974;2023-04-03T13:49:44;2.57;;;1.37;;
61322;SDS011;47203;48.428;11.974;2023-04-03T13:51:50;1.52;;;1.02;;
61322;SDS011;47203;48.428;11.974;2023-04-03T13:54:13;2.17;;;1.20;;
61322;SDS011;47203;48.428;11.974;2023-04-03T13:56:25;2.65;;;1.42;;
61322;SDS011;47203;48.428;11.974;2023-04-03T13:58:37;2.10;;;1.30;;
61322;SDS011;47203;48.428;11.974;2023-04-03T14:00:47;2.15;;;1.20;;
61322;SDS011;47203;48.428;11.974;2023-04-03T14:02:55;3.08;;;1.20;;
61322;SDS011;47203;48.428;11.974;2023-04-03T14:05:01;2.35;;;1.40;;
61322;SDS011;47203;48.428;11.974;2023-04-03T14:07:09;2.00;;;1.17;;